createdAt,value
2022-11-24T00:00:51.462Z,47.65
2022-11-24T00:03:18.481Z,41.15
2022-11-24T00:05:45.258Z,44.88
2022-11-24T00:08:12.363Z,40.83
2022-11-24T00:10:39.162Z,43.45
2022-11-24T00:13:05.861Z,48.45
2022-11-24T00:15:32.547Z,45.63
2022-11-24T00:17:59.198Z,40.50
2022-11-24T00:20:25.868Z,47.65
2022-11-24T00:22:52.533Z,42.15
2022-11-24T00:25:19.174Z,42.30
2022-11-24T00:27:48.825Z,44.33
2022-11-24T00:30:15.727Z,47.42
2022-11-24T00:32:42.451Z,42.53
2022-11-24T00:35:09.444Z,52.05
2022-11-24T00:37:36.277Z,48.10
2022-11-24T00:40:03.070Z,58.25
2022-11-24T00:42:29.730Z,45.20
2022-11-24T00:44:56.393Z,41.58
2022-11-24T00:47:23.107Z,45.20
2022-11-24T00:49:49.820Z,41.92
2022-11-24T00:52:16.739Z,46.85
2022-11-24T00:54:43.359Z,45.05
2022-11-24T00:57:10.117Z,46.40
2022-11-24T00:59:36.769Z,46.55
2022-11-24T01:02:03.580Z,42.67
2022-11-24T01:04:30.290Z,42.72
2022-11-24T01:06:56.965Z,45.72
2022-11-24T01:09:23.838Z,41.97
2022-11-24T01:12:02.758Z,42.65
2022-11-24T01:14:30.676Z,43.25
2022-11-24T01:16:57.378Z,43.67
2022-11-24T01:19:24.366Z,43.22
2022-11-24T01:21:51.090Z,45.47
2022-11-24T01:24:18.189Z,52.10
2022-11-24T01:26:44.915Z,45.97
2022-11-24T01:29:12.486Z,39.22
2022-11-24T01:31:39.297Z,46.17
2022-11-24T01:34:06.435Z,53.30
2022-11-24T01:36:33.833Z,39.38
2022-11-24T01:39:00.479Z,46.97
2022-11-24T01:41:27.430Z,45.30
2022-11-24T01:43:57.656Z,42.72
2022-11-24T01:46:32.043Z,41.97
2022-11-24T01:49:20.923Z,46.33
2022-11-24T01:51:51.152Z,45.83
2022-11-24T01:54:23.731Z,52.00
2022-11-24T01:56:53.724Z,48.90
2022-11-24T01:59:23.872Z,44.15
2022-11-24T02:01:51.690Z,42.83
2022-11-24T02:04:24.095Z,40.90
2022-11-24T02:06:52.041Z,78.45
2022-11-24T02:09:32.953Z,56.90
2022-11-24T02:12:01.154Z,53.78
2022-11-24T02:14:27.961Z,59.45
2022-11-24T02:16:54.699Z,44.17
2022-11-24T02:19:40.264Z,48.78
2022-11-24T02:22:22.316Z,48.85
2022-11-24T02:25:15.224Z,40.08
2022-11-24T02:27:44.701Z,50.30
2022-11-24T02:30:15.198Z,39.75
2022-11-24T02:32:42.319Z,41.97
2022-11-24T02:35:13.907Z,39.28
2022-11-24T02:37:40.623Z,38.70
2022-11-24T02:40:08.233Z,41.03
2022-11-24T02:42:40.093Z,41.70
2022-11-24T02:45:07.451Z,39.90
2022-11-24T02:47:34.165Z,36.17
2022-11-24T02:50:04.251Z,39.75
2022-11-24T02:52:30.915Z,41.53
2022-11-24T02:54:57.597Z,40.60
2022-11-24T02:57:27.331Z,36.92
2022-11-24T02:59:54.080Z,39.45
2022-11-24T03:02:20.976Z,41.70
2022-11-24T03:04:47.609Z,45.28
2022-11-24T03:07:14.814Z,40.28
2022-11-24T03:09:41.577Z,45.55
2022-11-24T03:12:08.388Z,41.65
2022-11-24T03:14:35.370Z,56.75
2022-11-24T03:17:02.533Z,42.33
2022-11-24T03:19:29.212Z,41.33
2022-11-24T03:21:55.990Z,42.15
2022-11-24T03:24:22.673Z,36.63
2022-11-24T03:26:49.321Z,36.42
2022-11-24T03:29:18.399Z,39.00
2022-11-24T03:31:45.428Z,42.88
2022-11-24T03:34:12.100Z,36.75
2022-11-24T03:36:38.855Z,41.85
2022-11-24T03:39:05.706Z,38.17
2022-11-24T03:41:32.593Z,36.45
2022-11-24T03:43:59.308Z,45.60
2022-11-24T03:46:26.124Z,39.63
2022-11-24T03:48:52.840Z,39.08
2022-11-24T03:51:19.566Z,38.08
2022-11-24T03:53:46.327Z,37.72
2022-11-24T03:56:14.349Z,38.67
2022-11-24T03:58:41.121Z,36.92
2022-11-24T04:01:07.764Z,35.60
2022-11-24T04:03:34.403Z,39.75
2022-11-24T04:06:01.078Z,37.40
2022-11-24T04:08:27.880Z,36.30
2022-11-24T04:10:54.920Z,36.60
2022-11-24T04:13:23.605Z,38.70
2022-11-24T04:15:50.600Z,38.15
2022-11-24T04:18:17.370Z,42.38
2022-11-24T04:20:44.440Z,40.63
2022-11-24T04:23:11.382Z,40.17
2022-11-24T04:25:38.636Z,39.67
2022-11-24T04:28:05.464Z,43.50
2022-11-24T04:30:32.146Z,41.75
2022-11-24T04:32:59.084Z,46.50
2022-11-24T04:35:25.706Z,39.25
2022-11-24T04:37:52.666Z,44.00
2022-11-24T04:40:20.116Z,43.03
2022-11-24T04:42:55.388Z,54.17
2022-11-24T04:45:23.057Z,43.28
2022-11-24T04:47:49.839Z,49.70
2022-11-24T04:50:16.839Z,45.00
2022-11-24T04:52:44.027Z,43.92
2022-11-24T04:55:11.128Z,37.92
2022-11-24T04:57:38.295Z,48.70
2022-11-24T05:00:05.562Z,40.42
2022-11-24T05:02:32.292Z,42.80
2022-11-24T05:04:58.979Z,38.45
2022-11-24T05:07:25.685Z,43.60
2022-11-24T05:10:11.014Z,41.35
2022-11-24T05:12:37.619Z,46.08
2022-11-24T05:15:05.789Z,36.28
2022-11-24T05:17:36.389Z,40.38
2022-11-24T05:20:04.528Z,41.42
2022-11-24T05:22:31.857Z,46.13
2022-11-24T05:24:58.544Z,40.83
2022-11-24T05:27:25.333Z,49.65
2022-11-24T05:29:52.006Z,52.22
2022-11-24T05:32:18.724Z,43.22
2022-11-24T05:34:45.513Z,44.88
2022-11-24T05:37:12.135Z,45.47
2022-11-24T05:39:38.828Z,35.65
2022-11-24T05:42:25.854Z,42.83
2022-11-24T05:44:53.491Z,37.65
2022-11-24T05:47:20.709Z,41.33
2022-11-24T05:49:47.695Z,36.72
2022-11-24T05:52:14.388Z,37.00
2022-11-24T05:54:41.078Z,42.50
2022-11-24T05:57:07.879Z,38.83
2022-11-24T05:59:34.574Z,39.17
2022-11-24T06:02:01.328Z,43.50
2022-11-24T06:04:28.195Z,36.40
2022-11-24T06:06:54.896Z,37.40
2022-11-24T06:09:21.647Z,35.47
2022-11-24T06:11:48.600Z,39.60
2022-11-24T06:14:15.265Z,44.10
2022-11-24T06:16:42.307Z,40.47
2022-11-24T06:19:10.396Z,35.85
2022-11-24T06:21:37.087Z,37.63
2022-11-24T06:24:04.271Z,36.58
2022-11-24T06:26:31.028Z,34.50
2022-11-24T06:29:01.412Z,34.47
2022-11-24T06:31:28.203Z,33.88
2022-11-24T06:33:54.943Z,33.97
2022-11-24T06:36:21.689Z,36.30
2022-11-24T06:38:48.350Z,32.17
2022-11-24T06:41:16.151Z,37.55
2022-11-24T06:43:46.436Z,32.47
2022-11-24T06:46:13.591Z,35.95
2022-11-24T06:48:40.273Z,32.65
2022-11-24T06:51:08.979Z,33.63
2022-11-24T06:53:38.290Z,37.90
2022-11-24T06:56:15.736Z,31.73
2022-11-24T06:58:48.387Z,34.88
2022-11-24T07:01:18.061Z,35.50
2022-11-24T07:03:44.960Z,39.50
2022-11-24T07:06:11.842Z,32.22
2022-11-24T07:08:38.596Z,33.42
2022-11-24T07:11:07.391Z,30.17
2022-11-24T07:13:34.103Z,31.60
2022-11-24T07:16:09.664Z,36.03
2022-11-24T07:18:36.358Z,34.33
2022-11-24T07:21:06.195Z,30.85
2022-11-24T07:23:32.849Z,40.78
2022-11-24T07:26:05.267Z,37.83
2022-11-24T07:28:33.831Z,33.72
2022-11-24T07:31:05.697Z,33.40
2022-11-24T07:33:32.554Z,36.15
2022-11-24T07:36:03.456Z,37.45
2022-11-24T07:38:31.732Z,34.55
2022-11-24T07:41:02.359Z,36.75
2022-11-24T07:43:30.539Z,33.90
2022-11-24T07:45:57.633Z,32.90
2022-11-24T07:48:24.546Z,36.03
2022-11-24T07:50:55.438Z,34.60
2022-11-24T07:53:22.511Z,37.03
2022-11-24T07:55:56.432Z,36.08
2022-11-24T07:58:23.316Z,34.15
2022-11-24T08:00:50.735Z,32.10
2022-11-24T08:03:17.550Z,33.30
2022-11-24T08:06:16.109Z,35.17
2022-11-24T08:08:33.481Z,34.85
2022-11-24T08:11:08.214Z,32.75
2022-11-24T08:13:35.963Z,34.05
2022-11-24T08:16:07.449Z,35.75
2022-11-24T08:18:35.277Z,35.78
2022-11-24T08:21:02.529Z,32.00
2022-11-24T08:23:29.915Z,34.38
2022-11-24T08:25:57.368Z,34.20
2022-11-24T08:28:24.480Z,37.40
2022-11-24T08:30:51.357Z,33.05
2022-11-24T08:33:19.082Z,37.80
2022-11-24T08:35:45.863Z,35.10
2022-11-24T08:38:12.560Z,34.15
2022-11-24T08:40:39.299Z,36.83
2022-11-24T08:43:06.292Z,37.20
2022-11-24T08:45:38.151Z,36.90
2022-11-24T08:48:08.005Z,34.78
2022-11-24T08:50:35.733Z,35.28
2022-11-24T08:53:02.434Z,37.67
2022-11-24T08:55:29.191Z,34.70
2022-11-24T08:57:59.508Z,35.72
2022-11-24T09:00:26.512Z,40.40
2022-11-24T09:02:55.251Z,37.15
2022-11-24T09:05:50.161Z,36.10
2022-11-24T09:08:08.820Z,35.80
2022-11-24T09:10:36.269Z,38.00
2022-11-24T09:13:02.995Z,37.75
2022-11-24T09:15:29.783Z,37.33
2022-11-24T09:17:57.557Z,36.15
2022-11-24T09:20:24.398Z,38.67
2022-11-24T09:22:51.056Z,36.53
2022-11-24T09:25:21.051Z,33.92
2022-11-24T09:27:47.674Z,37.00
2022-11-24T09:30:14.634Z,34.15
2022-11-24T09:32:42.597Z,35.97
2022-11-24T09:35:09.691Z,32.15
2022-11-24T09:37:36.489Z,37.13
2022-11-24T09:40:03.569Z,37.90
2022-11-24T09:42:36.147Z,35.47
2022-11-24T09:45:06.650Z,35.00
2022-11-24T09:47:51.882Z,35.92
2022-11-24T09:50:23.489Z,35.42
2022-11-24T09:53:11.033Z,38.60
2022-11-24T09:55:59.702Z,35.47
2022-11-24T09:58:51.961Z,33.55
2022-11-24T10:01:26.604Z,37.08
2022-11-24T10:03:53.831Z,39.58
2022-11-24T10:06:28.243Z,37.03
2022-11-24T10:09:07.956Z,38.95
2022-11-24T10:12:04.010Z,37.10
2022-11-24T10:14:42.945Z,35.70
2022-11-24T10:17:18.610Z,39.85
2022-11-24T10:19:56.917Z,40.72
2022-11-24T10:22:39.923Z,34.30
2022-11-24T10:25:12.768Z,37.80
2022-11-24T10:27:49.223Z,36.75
2022-11-24T10:30:45.928Z,36.45
2022-11-24T10:33:27.105Z,36.35
2022-11-24T10:36:14.501Z,32.67
2022-11-24T10:39:03.302Z,36.45
2022-11-24T10:41:42.727Z,35.95
2022-11-24T10:44:14.310Z,37.05
2022-11-24T10:46:41.340Z,41.00
2022-11-24T10:49:16.513Z,39.33
2022-11-24T10:52:14.203Z,38.97
2022-11-24T10:54:58.544Z,39.38
2022-11-24T10:57:35.110Z,36.10
2022-11-24T11:00:24.353Z,37.33
2022-11-24T11:03:11.155Z,37.92
2022-11-24T11:05:43.342Z,36.92
2022-11-24T11:08:26.617Z,38.28
2022-11-24T11:11:15.163Z,41.60
2022-11-24T11:14:03.514Z,36.17
2022-11-24T11:16:46.017Z,41.10
2022-11-24T11:19:48.348Z,39.33
2022-11-24T11:22:24.308Z,39.05
2022-11-24T11:25:09.985Z,37.97
2022-11-24T11:27:37.961Z,39.05
2022-11-24T11:35:51.120Z,46.20
2022-11-24T11:38:18.138Z,39.25
2022-11-24T11:40:49.157Z,39.10
2022-11-24T11:43:25.175Z,40.40
2022-11-24T11:46:00.672Z,40.78
2022-11-24T11:48:43.257Z,36.47
2022-11-24T11:51:25.926Z,36.10
2022-11-24T11:54:30.154Z,40.40
2022-11-24T11:57:20.606Z,40.00
2022-11-24T12:00:04.673Z,38.17
2022-11-24T12:02:53.330Z,38.95
2022-11-24T12:05:25.538Z,38.95
2022-11-24T12:09:03.320Z,41.25
2022-11-24T12:11:34.375Z,38.85
2022-11-24T12:14:19.250Z,36.53
2022-11-24T12:17:02.024Z,40.17
2022-11-24T12:20:12.732Z,37.10
2022-11-24T12:22:44.289Z,41.13
2022-11-24T12:25:20.039Z,39.83
2022-11-24T12:28:02.320Z,37.42
2022-11-24T12:30:55.060Z,37.25
2022-11-24T12:34:00.940Z,37.83
2022-11-24T12:36:33.095Z,42.88
2022-11-24T12:39:21.292Z,42.72
2022-11-24T12:42:23.279Z,37.17
2022-11-24T12:45:06.247Z,38.35
2022-11-24T12:47:51.086Z,33.40
2022-11-24T12:50:19.641Z,37.20
2022-11-24T12:53:19.067Z,39.67
2022-11-24T12:55:46.405Z,36.08
2022-11-24T12:58:42.889Z,37.10
2022-11-24T13:01:23.781Z,38.65
2022-11-24T13:04:12.318Z,40.60
2022-11-24T13:06:49.643Z,39.33
2022-11-24T13:09:16.603Z,37.65
2022-11-24T13:11:46.858Z,38.10
2022-11-24T13:14:29.764Z,35.35
2022-11-24T13:17:46.265Z,38.15
2022-11-24T13:20:20.190Z,39.13
2022-11-24T13:22:56.625Z,37.80
2022-11-24T13:25:31.447Z,34.22
2022-11-24T13:28:00.209Z,39.40
2022-11-24T13:30:35.947Z,38.00
2022-11-24T13:33:16.229Z,38.70
2022-11-24T13:36:09.763Z,40.60
2022-11-24T13:38:39.754Z,38.63
2022-11-24T13:41:28.331Z,38.97
2022-11-24T13:44:15.996Z,36.42
2022-11-24T13:47:06.164Z,38.08
2022-11-24T13:49:44.361Z,38.40
2022-11-24T13:52:36.291Z,39.75
2022-11-24T13:55:13.090Z,38.03
2022-11-24T13:57:52.004Z,38.80
2022-11-24T14:00:24.915Z,40.70
2022-11-24T14:02:54.316Z,38.78
2022-11-24T14:05:24.073Z,36.97
2022-11-24T14:07:51.932Z,39.60
2022-11-24T14:10:23.001Z,38.58
2022-11-24T14:13:16.568Z,37.95
2022-11-24T14:15:43.254Z,39.05
2022-11-24T14:18:18.565Z,41.40
2022-11-24T14:20:45.286Z,37.97
2022-11-24T14:23:12.072Z,36.47
2022-11-24T14:25:39.222Z,38.78
2022-11-24T14:28:23.603Z,40.45
2022-11-24T14:30:50.576Z,40.95
2022-11-24T14:33:20.047Z,37.50
2022-11-24T14:35:49.496Z,39.50
2022-11-24T14:38:16.188Z,37.00
2022-11-24T14:40:44.027Z,38.33
2022-11-24T14:43:26.361Z,39.13
2022-11-24T14:45:58.647Z,39.38
2022-11-24T14:48:31.159Z,34.33
2022-11-24T14:51:21.954Z,37.95
2022-11-24T14:53:51.284Z,38.50
2022-11-24T14:56:27.349Z,38.30
2022-11-24T14:58:55.433Z,37.70
2022-11-24T15:01:28.112Z,35.55
2022-11-24T15:04:13.089Z,43.45
2022-11-24T15:06:47.400Z,35.75
2022-11-24T15:09:50.879Z,38.30
2022-11-24T15:12:35.184Z,36.20
2022-11-24T15:15:05.978Z,37.28
2022-11-24T15:17:33.427Z,39.72
2022-11-24T15:20:04.221Z,37.35
2022-11-24T15:22:38.965Z,40.22
2022-11-24T15:25:25.438Z,39.03
2022-11-24T15:27:55.441Z,36.55
2022-11-24T15:30:22.592Z,38.15
2022-11-24T15:32:51.341Z,43.97
2022-11-24T15:35:18.057Z,37.17
2022-11-24T15:37:44.972Z,36.92
2022-11-24T15:40:11.958Z,34.53
2022-11-24T15:42:38.760Z,37.17
2022-11-24T15:45:10.103Z,39.42
2022-11-24T15:47:36.780Z,36.97
2022-11-24T15:50:03.948Z,35.47
2022-11-24T15:52:30.748Z,38.33
2022-11-24T15:54:58.428Z,39.63
2022-11-24T15:57:25.344Z,37.92
2022-11-24T15:59:52.812Z,38.72
2022-11-24T16:02:21.995Z,36.67
2022-11-24T16:04:49.593Z,37.63
2022-11-24T16:07:16.350Z,37.97
2022-11-24T16:09:43.417Z,39.47
2022-11-24T16:12:10.174Z,38.28
2022-11-24T16:14:40.007Z,40.13
2022-11-24T16:17:06.787Z,36.90
2022-11-24T16:19:38.693Z,34.60
2022-11-24T16:22:08.266Z,35.33
2022-11-24T16:24:37.720Z,34.63
2022-11-24T16:27:04.684Z,39.95
2022-11-24T16:29:36.901Z,35.08
2022-11-24T16:32:05.571Z,33.25
2022-11-24T16:34:32.547Z,37.13
2022-11-24T16:36:59.559Z,37.08
2022-11-24T16:39:26.264Z,35.90
2022-11-24T16:41:52.969Z,41.58
2022-11-24T16:44:19.641Z,38.17
2022-11-24T16:46:46.295Z,40.70
2022-11-24T16:49:13.210Z,36.72
2022-11-24T16:51:39.874Z,38.13
2022-11-24T16:54:06.706Z,35.67
2022-11-24T16:56:33.488Z,38.63
2022-11-24T16:59:00.270Z,34.70
2022-11-24T17:01:27.264Z,35.50
2022-11-24T17:03:53.992Z,39.22
2022-11-24T17:06:20.778Z,39.08
2022-11-24T17:08:47.634Z,38.47
2022-11-24T17:11:23.102Z,37.83
2022-11-24T17:13:50.059Z,39.08
2022-11-24T17:16:22.186Z,40.03
2022-11-24T17:18:49.455Z,39.38
2022-11-24T17:21:21.522Z,44.13
2022-11-24T17:23:48.444Z,39.67
2022-11-24T17:26:16.866Z,42.65
2022-11-24T17:28:44.219Z,42.92
2022-11-24T17:31:22.356Z,39.05
2022-11-24T17:33:50.157Z,43.58
2022-11-24T17:36:16.974Z,36.90
2022-11-24T17:38:43.719Z,40.45
2022-11-24T17:41:13.532Z,41.00
2022-11-24T17:43:40.293Z,42.97
2022-11-24T17:46:07.197Z,39.28
2022-11-24T17:48:40.290Z,38.60
2022-11-24T17:51:09.954Z,40.08
2022-11-24T17:53:37.612Z,40.40
2022-11-24T17:56:04.880Z,39.65
2022-11-24T17:58:32.717Z,45.42
2022-11-24T18:00:59.734Z,37.42
2022-11-24T18:03:31.744Z,39.17
2022-11-24T18:06:05.850Z,41.72
2022-11-24T18:08:33.674Z,36.53
2022-11-24T18:11:08.431Z,38.38
2022-11-24T18:13:55.895Z,38.28
2022-11-24T18:16:22.200Z,39.05
2022-11-24T18:18:51.009Z,39.17
2022-11-24T18:21:18.047Z,36.45
2022-11-24T18:23:45.053Z,36.47
2022-11-24T18:26:15.039Z,38.08
2022-11-24T18:28:43.594Z,38.10
2022-11-24T18:31:12.742Z,36.38
2022-11-24T18:33:40.710Z,38.20
2022-11-24T18:36:08.423Z,36.42
2022-11-24T18:38:39.061Z,38.72
2022-11-24T18:41:06.681Z,36.60
2022-11-24T18:43:35.895Z,37.30
2022-11-24T18:46:07.382Z,36.08
2022-11-24T18:48:34.938Z,40.40
2022-11-24T18:51:01.857Z,42.72
2022-11-24T18:53:29.684Z,41.33
2022-11-24T18:56:01.431Z,39.63
2022-11-24T18:58:30.209Z,38.15
2022-11-24T19:01:20.564Z,38.42
2022-11-24T19:03:53.481Z,38.63
2022-11-24T19:06:22.405Z,40.58
2022-11-24T19:08:52.023Z,38.00
2022-11-24T19:11:20.764Z,40.03
2022-11-24T19:13:48.904Z,40.97
2022-11-24T19:16:16.759Z,40.30
2022-11-24T19:18:45.552Z,45.33
2022-11-24T19:21:15.925Z,44.65
2022-11-24T19:23:42.800Z,44.72
2022-11-24T19:26:09.559Z,44.25
2022-11-24T19:28:36.270Z,41.72
2022-11-24T19:31:08.477Z,43.38
2022-11-24T19:33:35.244Z,43.38
2022-11-24T19:36:07.118Z,43.75
2022-11-24T19:38:35.336Z,42.10
2022-11-24T19:41:06.184Z,40.35
2022-11-24T19:43:33.417Z,36.67
2022-11-24T19:46:08.072Z,37.85
2022-11-24T19:48:46.123Z,39.58
2022-11-24T19:51:17.454Z,39.15
2022-11-24T19:53:44.702Z,41.22
2022-11-24T19:56:14.288Z,37.95
2022-11-24T19:58:41.333Z,38.30
2022-11-24T20:01:16.552Z,38.63
2022-11-24T20:03:44.892Z,39.90
2022-11-24T20:06:13.188Z,40.13
2022-11-24T20:08:41.866Z,41.65
2022-11-24T20:11:11.190Z,42.03
2022-11-24T20:13:39.241Z,49.38
2022-11-24T20:16:17.661Z,50.95
2022-11-24T20:18:46.279Z,44.85
2022-11-24T20:21:15.642Z,49.20
2022-11-24T20:23:42.714Z,54.88
2022-11-24T20:26:15.605Z,57.03
2022-11-24T20:28:42.962Z,46.92
2022-11-24T20:31:21.454Z,52.25
2022-11-24T20:33:48.299Z,54.88
2022-11-24T20:36:23.625Z,48.42
2022-11-24T20:38:51.223Z,55.42
2022-11-24T20:41:20.706Z,58.42
2022-11-24T20:43:47.733Z,62.60
2022-11-24T20:46:17.563Z,50.47
2022-11-24T20:48:44.939Z,46.65
2022-11-24T20:51:14.002Z,50.03
2022-11-24T20:53:41.024Z,48.25
2022-11-24T20:56:16.428Z,45.67
2022-11-24T20:58:43.508Z,46.53
2022-11-24T21:01:22.328Z,37.35
2022-11-24T21:03:56.679Z,64.18
2022-11-24T21:06:23.722Z,51.17
2022-11-24T21:08:51.091Z,53.60
2022-11-24T21:11:18.680Z,47.40
2022-11-24T21:13:46.032Z,52.65
2022-11-24T21:16:14.616Z,49.08
2022-11-24T21:18:41.443Z,45.38
2022-11-24T21:21:09.553Z,82.80
2022-11-24T21:23:36.351Z,50.17
2022-11-24T21:26:09.070Z,62.10
2022-11-24T21:28:38.629Z,61.20
2022-11-24T21:31:14.359Z,55.80
2022-11-24T21:33:42.245Z,60.78
2022-11-24T21:36:09.264Z,38.28
2022-11-24T21:38:36.204Z,51.80
2022-11-24T21:41:08.338Z,50.38
2022-11-24T21:43:35.669Z,37.05
2022-11-24T21:46:06.903Z,41.90
2022-11-24T21:48:35.565Z,40.85
2022-11-24T21:51:04.415Z,36.13
2022-11-24T21:53:33.953Z,38.25
2022-11-24T21:56:02.719Z,46.63
2022-11-24T21:58:29.940Z,50.08
2022-11-24T22:01:05.294Z,34.85
2022-11-24T22:03:32.265Z,47.42
2022-11-24T22:06:00.387Z,25.77
2022-11-24T22:08:28.245Z,32.40
2022-11-24T22:11:12.749Z,29.25
2022-11-24T22:13:40.674Z,29.92
2022-11-24T22:16:12.977Z,34.63
2022-11-24T22:18:44.249Z,36.22
2022-11-24T22:21:13.522Z,37.22
2022-11-24T22:23:40.529Z,31.63
2022-11-24T22:26:12.398Z,28.20
2022-11-24T22:28:39.626Z,31.25
2022-11-24T22:31:15.186Z,32.65
2022-11-24T22:33:42.315Z,36.08
2022-11-24T22:36:10.456Z,30.92
2022-11-24T22:38:40.745Z,30.95
2022-11-24T22:41:15.077Z,28.60
2022-11-24T22:43:43.084Z,28.00
2022-11-24T22:46:15.100Z,26.65
2022-11-24T22:48:42.539Z,27.08
2022-11-24T22:51:10.835Z,26.08
2022-11-24T22:53:38.014Z,28.10
2022-11-24T22:56:06.469Z,26.50
2022-11-24T22:58:37.078Z,26.02
2022-11-24T23:01:15.058Z,26.88
2022-11-24T23:03:42.143Z,27.30
2022-11-24T23:06:15.028Z,27.60
2022-11-24T23:08:42.366Z,25.35
2022-11-24T23:11:10.270Z,24.77
2022-11-24T23:13:40.532Z,25.17
2022-11-24T23:16:15.570Z,22.65
2022-11-24T23:18:42.939Z,25.00
2022-11-24T23:21:20.370Z,23.48
2022-11-24T23:23:48.363Z,22.75
2022-11-24T23:26:18.050Z,23.50
2022-11-24T23:28:44.733Z,26.00
2022-11-24T23:31:17.090Z,24.70
2022-11-24T23:33:43.791Z,24.77
2022-11-24T23:36:18.283Z,24.65
2022-11-24T23:38:45.329Z,25.15
2022-11-24T23:41:14.234Z,24.27
2022-11-24T23:43:42.355Z,20.90
2022-11-24T23:46:11.608Z,25.10
2022-11-24T23:48:38.913Z,26.55
2022-11-24T23:51:11.848Z,25.85
2022-11-24T23:53:38.593Z,24.92
2022-11-24T23:56:06.079Z,26.15
2022-11-24T23:58:33.537Z,26.63
